Montrose, MN (55363)

12:10 PM CST on February 11, 2016 (GMT -0600)
DrewKat | | Change Station
CLOSE
Current Station
Personal Weather Station
Location: Delano, MN
Elevation: 988 ft
Nearby Weather Stations

Elev 988 ft 45.00 °N, 93.86 °W | Updated 11 minutes ago

Overcast
Overcast
14.7 °F
Feels Like 15 °F
N
0.0
Wind Variable Wind from South

Today
High -- | Low -- °F
--% Chance of Precip.
Yesterday
High -- | Low -- °F
Precip. -- in
Pressure 30.30 in
Visibility 10.0 miles
Clouds Overcast 6000 ft
Windchill 15 °F
Dew Point 6 °F
Humidity 68%
Rainfall 0.00 in
Snow Depth Not available.
7:23 AM 5:37 PM
Waxing Crescent, 13% visible
METAR KCFE 111754Z AUTO 19004KT 10SM OVC060 M11/M19 A3030 RMK AO2 T11111188
Pressure 30.30 in
Visibility 10.0 miles
Clouds Overcast 6000 ft
Windchill 15 °F
Dew Point 6 °F
Humidity 68%
Rainfall 0.00 in
Snow Depth Not available.
7:23 AM 5:37 PM
Waxing Crescent, 13% visible
METAR KCFE 111754Z AUTO 19004KT 10SM OVC060 M11/M19 A3030 RMK AO2 T11111188

10-Day Weather Forecast

Almanac

Astronomy

Feb. 11, 2016 Rise Set
Actual Time
Civil Twilight
Nautical Twilight
Astronomical Twilight
Moon
Length of Visible Light
Length of Day
Tomorrow will be .
, % of the Moon is Illuminated

Today's Extremes

State Highs State Lows

Community

WunderPhotos

Upload Photos

1,892,121 photos uploaded!

WunderBlog® & News

Nearby

Air Quality

  Air Quality AQ Index Pollutant
Not available.

Snow Depth

Station Depth Elevation

Earthquake Activity

City Distance Mag. Time & Date
Minimum magnitude displayed is 2.5.

Coastal Water Temperatures

Place Temperature

Stations

Nearby Weather Stations

Station Location Temp. Windchill Dew Point Humidity Wind Precip. Elev Updated Type
                   

Watches & Warnings

There are currently no watches in effect.